sensor_id;sensor_type;location;lat;lon;timestamp;P1;durP1;ratioP1;P2;durP2;ratioP2
81298;SDS011;70766;53.170;18.160;2024-01-30T00:00:30;38.30;;;14.80;;
81298;SDS011;70766;53.170;18.160;2024-01-30T00:03:18;48.70;;;17.20;;
81298;SDS011;70766;53.170;18.160;2024-01-30T00:05:46;50.40;;;18.50;;
81298;SDS011;70766;53.170;18.160;2024-01-30T00:08:15;53.10;;;20.70;;
81298;SDS011;70766;53.170;18.160;2024-01-30T00:10:43;46.20;;;17.50;;
81298;SDS011;70766;53.170;18.160;2024-01-30T00:13:11;51.00;;;19.30;;
81298;SDS011;70766;53.170;18.160;2024-01-30T00:15:39;56.30;;;21.50;;
81298;SDS011;70766;53.170;18.160;2024-01-30T00:18:07;48.00;;;18.90;;
81298;SDS011;70766;53.170;18.160;2024-01-30T00:20:35;47.60;;;18.10;;
81298;SDS011;70766;53.170;18.160;2024-01-30T00:23:04;58.80;;;20.60;;
81298;SDS011;70766;53.170;18.160;2024-01-30T00:25:32;66.30;;;22.40;;
81298;SDS011;70766;53.170;18.160;2024-01-30T00:28:01;56.80;;;22.50;;
81298;SDS011;70766;53.170;18.160;2024-01-30T00:30:29;49.10;;;18.70;;
81298;SDS011;70766;53.170;18.160;2024-01-30T00:32:57;48.00;;;18.10;;
81298;SDS011;70766;53.170;18.160;2024-01-30T00:35:25;46.30;;;17.70;;
81298;SDS011;70766;53.170;18.160;2024-01-30T00:37:54;49.10;;;17.90;;
81298;SDS011;70766;53.170;18.160;2024-01-30T00:40:22;47.40;;;16.60;;
81298;SDS011;70766;53.170;18.160;2024-01-30T00:42:51;63.60;;;21.70;;
81298;SDS011;70766;53.170;18.160;2024-01-30T00:45:19;50.90;;;20.10;;
81298;SDS011;70766;53.170;18.160;2024-01-30T00:47:47;43.50;;;18.60;;
81298;SDS011;70766;53.170;18.160;2024-01-30T00:50:15;51.50;;;18.80;;
81298;SDS011;70766;53.170;18.160;2024-01-30T00:52:43;56.90;;;21.00;;
81298;SDS011;70766;53.170;18.160;2024-01-30T00:55:13;58.60;;;22.50;;
81298;SDS011;70766;53.170;18.160;2024-01-30T00:57:42;61.90;;;21.40;;
81298;SDS011;70766;53.170;18.160;2024-01-30T01:00:13;53.20;;;19.10;;
81298;SDS011;70766;53.170;18.160;2024-01-30T01:02:44;47.80;;;18.00;;
81298;SDS011;70766;53.170;18.160;2024-01-30T01:05:13;59.40;;;21.70;;
81298;SDS011;70766;53.170;18.160;2024-01-30T01:07:42;64.90;;;24.00;;
81298;SDS011;70766;53.170;18.160;2024-01-30T01:10:10;48.80;;;19.70;;
81298;SDS011;70766;53.170;18.160;2024-01-30T01:12:39;49.80;;;19.30;;
81298;SDS011;70766;53.170;18.160;2024-01-30T01:15:07;47.20;;;17.30;;
81298;SDS011;70766;53.170;18.160;2024-01-30T01:17:38;43.30;;;16.10;;
81298;SDS011;70766;53.170;18.160;2024-01-30T01:20:07;44.40;;;18.70;;
81298;SDS011;70766;53.170;18.160;2024-01-30T01:22:36;48.50;;;15.70;;
81298;SDS011;70766;53.170;18.160;2024-01-30T01:25:06;50.90;;;18.50;;
81298;SDS011;70766;53.170;18.160;2024-01-30T01:27:36;52.70;;;20.60;;
81298;SDS011;70766;53.170;18.160;2024-01-30T01:30:09;46.00;;;17.60;;
81298;SDS011;70766;53.170;18.160;2024-01-30T01:32:38;48.20;;;18.40;;
81298;SDS011;70766;53.170;18.160;2024-01-30T01:35:06;54.40;;;20.70;;
81298;SDS011;70766;53.170;18.160;2024-01-30T01:37:34;50.70;;;18.90;;
81298;SDS011;70766;53.170;18.160;2024-01-30T01:40:03;48.30;;;18.70;;
81298;SDS011;70766;53.170;18.160;2024-01-30T01:42:31;47.70;;;17.80;;
81298;SDS011;70766;53.170;18.160;2024-01-30T01:44:59;44.10;;;15.80;;
81298;SDS011;70766;53.170;18.160;2024-01-30T01:47:27;37.20;;;13.80;;
81298;SDS011;70766;53.170;18.160;2024-01-30T01:49:55;35.90;;;14.80;;
81298;SDS011;70766;53.170;18.160;2024-01-30T01:52:23;36.60;;;15.80;;
81298;SDS011;70766;53.170;18.160;2024-01-30T01:54:52;54.50;;;19.80;;
81298;SDS011;70766;53.170;18.160;2024-01-30T01:57:20;43.10;;;17.10;;
81298;SDS011;70766;53.170;18.160;2024-01-30T01:59:48;53.20;;;18.50;;
81298;SDS011;70766;53.170;18.160;2024-01-30T02:02:17;53.90;;;19.80;;
81298;SDS011;70766;53.170;18.160;2024-01-30T02:04:47;60.60;;;21.10;;
81298;SDS011;70766;53.170;18.160;2024-01-30T02:07:15;61.70;;;21.30;;
81298;SDS011;70766;53.170;18.160;2024-01-30T02:09:43;57.70;;;20.50;;
81298;SDS011;70766;53.170;18.160;2024-01-30T02:12:11;58.40;;;18.20;;
81298;SDS011;70766;53.170;18.160;2024-01-30T02:14:46;57.80;;;19.90;;
81298;SDS011;70766;53.170;18.160;2024-01-30T02:17:15;62.10;;;20.90;;
81298;SDS011;70766;53.170;18.160;2024-01-30T02:19:44;63.70;;;21.90;;
81298;SDS011;70766;53.170;18.160;2024-01-30T02:22:12;67.00;;;22.00;;
81298;SDS011;70766;53.170;18.160;2024-01-30T02:24:41;61.00;;;22.70;;
81298;SDS011;70766;53.170;18.160;2024-01-30T02:27:09;56.80;;;21.10;;
81298;SDS011;70766;53.170;18.160;2024-01-30T02:29:37;63.60;;;23.00;;
81298;SDS011;70766;53.170;18.160;2024-01-30T02:32:05;57.40;;;20.20;;
81298;SDS011;70766;53.170;18.160;2024-01-30T02:34:34;54.70;;;19.40;;
81298;SDS011;70766;53.170;18.160;2024-01-30T02:37:02;57.80;;;19.90;;
81298;SDS011;70766;53.170;18.160;2024-01-30T02:39:30;64.60;;;21.90;;
81298;SDS011;70766;53.170;18.160;2024-01-30T02:41:58;56.50;;;20.10;;
81298;SDS011;70766;53.170;18.160;2024-01-30T02:44:26;55.00;;;20.80;;
81298;SDS011;70766;53.170;18.160;2024-01-30T02:46:54;57.60;;;21.30;;
81298;SDS011;70766;53.170;18.160;2024-01-30T02:49:22;60.70;;;21.40;;
81298;SDS011;70766;53.170;18.160;2024-01-30T02:51:51;53.00;;;20.30;;
81298;SDS011;70766;53.170;18.160;2024-01-30T02:54:21;60.00;;;20.50;;
81298;SDS011;70766;53.170;18.160;2024-01-30T02:56:49;57.20;;;19.70;;
81298;SDS011;70766;53.170;18.160;2024-01-30T02:59:17;49.50;;;17.60;;
81298;SDS011;70766;53.170;18.160;2024-01-30T03:01:45;59.50;;;20.10;;
81298;SDS011;70766;53.170;18.160;2024-01-30T03:04:14;58.70;;;21.10;;
81298;SDS011;70766;53.170;18.160;2024-01-30T03:06:46;49.50;;;18.70;;
81298;SDS011;70766;53.170;18.160;2024-01-30T03:09:17;60.10;;;21.20;;
81298;SDS011;70766;53.170;18.160;2024-01-30T03:11:46;49.00;;;18.50;;
81298;SDS011;70766;53.170;18.160;2024-01-30T03:14:14;47.90;;;17.60;;
81298;SDS011;70766;53.170;18.160;2024-01-30T03:16:42;48.80;;;19.40;;
81298;SDS011;70766;53.170;18.160;2024-01-30T03:19:10;53.40;;;19.80;;
81298;SDS011;70766;53.170;18.160;2024-01-30T03:21:38;52.40;;;20.00;;
81298;SDS011;70766;53.170;18.160;2024-01-30T03:24:06;62.10;;;20.30;;
81298;SDS011;70766;53.170;18.160;2024-01-30T03:26:34;57.70;;;22.30;;
81298;SDS011;70766;53.170;18.160;2024-01-30T03:29:02;63.70;;;21.60;;
81298;SDS011;70766;53.170;18.160;2024-01-30T03:31:30;58.90;;;20.40;;
81298;SDS011;70766;53.170;18.160;2024-01-30T03:33:59;59.40;;;21.60;;
81298;SDS011;70766;53.170;18.160;2024-01-30T03:36:27;60.80;;;22.20;;
81298;SDS011;70766;53.170;18.160;2024-01-30T03:38:55;57.70;;;22.20;;
81298;SDS011;70766;53.170;18.160;2024-01-30T03:41:24;50.90;;;18.60;;
81298;SDS011;70766;53.170;18.160;2024-01-30T03:43:52;58.10;;;21.50;;
81298;SDS011;70766;53.170;18.160;2024-01-30T03:46:20;53.30;;;20.10;;
81298;SDS011;70766;53.170;18.160;2024-01-30T03:48:48;52.50;;;21.80;;
81298;SDS011;70766;53.170;18.160;2024-01-30T03:51:16;52.70;;;21.70;;
81298;SDS011;70766;53.170;18.160;2024-01-30T03:53:45;56.60;;;21.30;;
81298;SDS011;70766;53.170;18.160;2024-01-30T03:56:16;51.90;;;19.10;;
81298;SDS011;70766;53.170;18.160;2024-01-30T03:58:44;49.00;;;17.20;;
81298;SDS011;70766;53.170;18.160;2024-01-30T04:01:13;49.30;;;18.70;;
81298;SDS011;70766;53.170;18.160;2024-01-30T04:03:42;53.50;;;20.00;;
81298;SDS011;70766;53.170;18.160;2024-01-30T04:06:12;54.20;;;20.50;;
81298;SDS011;70766;53.170;18.160;2024-01-30T04:08:40;49.40;;;18.60;;
81298;SDS011;70766;53.170;18.160;2024-01-30T04:11:08;50.70;;;19.40;;
81298;SDS011;70766;53.170;18.160;2024-01-30T04:13:36;56.50;;;19.40;;
81298;SDS011;70766;53.170;18.160;2024-01-30T04:16:05;45.80;;;19.30;;
81298;SDS011;70766;53.170;18.160;2024-01-30T04:18:33;44.80;;;16.50;;
81298;SDS011;70766;53.170;18.160;2024-01-30T04:21:01;46.60;;;17.90;;
81298;SDS011;70766;53.170;18.160;2024-01-30T04:23:30;43.90;;;18.50;;
81298;SDS011;70766;53.170;18.160;2024-01-30T04:25:58;57.20;;;20.30;;
81298;SDS011;70766;53.170;18.160;2024-01-30T04:28:26;51.70;;;19.70;;
81298;SDS011;70766;53.170;18.160;2024-01-30T04:30:54;48.40;;;19.60;;
81298;SDS011;70766;53.170;18.160;2024-01-30T04:33:23;59.70;;;20.60;;
81298;SDS011;70766;53.170;18.160;2024-01-30T04:35:51;46.60;;;18.80;;
81298;SDS011;70766;53.170;18.160;2024-01-30T04:38:19;51.50;;;20.00;;
81298;SDS011;70766;53.170;18.160;2024-01-30T04:40:47;45.90;;;17.70;;
81298;SDS011;70766;53.170;18.160;2024-01-30T04:43:16;42.80;;;17.20;;
81298;SDS011;70766;53.170;18.160;2024-01-30T04:45:44;49.30;;;19.70;;
81298;SDS011;70766;53.170;18.160;2024-01-30T04:48:12;54.10;;;20.10;;
81298;SDS011;70766;53.170;18.160;2024-01-30T04:50:40;48.30;;;19.90;;
81298;SDS011;70766;53.170;18.160;2024-01-30T04:53:08;44.50;;;17.90;;
81298;SDS011;70766;53.170;18.160;2024-01-30T04:55:36;54.60;;;21.80;;
81298;SDS011;70766;53.170;18.160;2024-01-30T04:58:05;48.30;;;18.30;;
81298;SDS011;70766;53.170;18.160;2024-01-30T05:00:33;54.30;;;21.70;;
81298;SDS011;70766;53.170;18.160;2024-01-30T05:03:01;56.00;;;21.70;;
81298;SDS011;70766;53.170;18.160;2024-01-30T05:05:29;58.80;;;23.00;;
81298;SDS011;70766;53.170;18.160;2024-01-30T05:07:57;61.30;;;23.90;;
81298;SDS011;70766;53.170;18.160;2024-01-30T05:10:25;70.00;;;28.10;;
81298;SDS011;70766;53.170;18.160;2024-01-30T05:12:53;72.40;;;28.00;;
81298;SDS011;70766;53.170;18.160;2024-01-30T05:15:22;73.60;;;26.90;;
81298;SDS011;70766;53.170;18.160;2024-01-30T05:17:50;65.40;;;27.00;;
81298;SDS011;70766;53.170;18.160;2024-01-30T05:20:19;69.60;;;27.10;;
81298;SDS011;70766;53.170;18.160;2024-01-30T05:22:48;76.00;;;29.10;;
81298;SDS011;70766;53.170;18.160;2024-01-30T05:25:16;62.20;;;23.30;;
81298;SDS011;70766;53.170;18.160;2024-01-30T05:27:45;67.90;;;24.50;;
81298;SDS011;70766;53.170;18.160;2024-01-30T05:30:13;47.90;;;20.00;;
81298;SDS011;70766;53.170;18.160;2024-01-30T05:32:41;61.30;;;22.90;;
81298;SDS011;70766;53.170;18.160;2024-01-30T05:35:11;54.20;;;21.30;;
81298;SDS011;70766;53.170;18.160;2024-01-30T05:37:39;52.80;;;23.00;;
81298;SDS011;70766;53.170;18.160;2024-01-30T05:40:07;63.00;;;22.50;;
81298;SDS011;70766;53.170;18.160;2024-01-30T05:42:37;59.00;;;23.10;;
81298;SDS011;70766;53.170;18.160;2024-01-30T05:45:05;57.10;;;22.70;;
81298;SDS011;70766;53.170;18.160;2024-01-30T05:47:35;54.30;;;21.80;;
81298;SDS011;70766;53.170;18.160;2024-01-30T05:50:05;60.60;;;22.60;;
81298;SDS011;70766;53.170;18.160;2024-01-30T05:52:34;67.80;;;23.70;;
81298;SDS011;70766;53.170;18.160;2024-01-30T05:55:07;64.20;;;22.90;;
81298;SDS011;70766;53.170;18.160;2024-01-30T05:57:35;64.10;;;23.90;;
81298;SDS011;70766;53.170;18.160;2024-01-30T06:00:05;68.40;;;26.20;;
81298;SDS011;70766;53.170;18.160;2024-01-30T06:02:33;72.00;;;25.00;;
81298;SDS011;70766;53.170;18.160;2024-01-30T06:05:02;64.90;;;25.10;;
81298;SDS011;70766;53.170;18.160;2024-01-30T06:07:30;68.50;;;25.90;;
81298;SDS011;70766;53.170;18.160;2024-01-30T06:10:03;58.30;;;22.30;;
81298;SDS011;70766;53.170;18.160;2024-01-30T06:12:34;46.50;;;19.00;;
81298;SDS011;70766;53.170;18.160;2024-01-30T06:15:03;56.70;;;23.40;;
81298;SDS011;70766;53.170;18.160;2024-01-30T06:17:33;56.70;;;23.10;;
81298;SDS011;70766;53.170;18.160;2024-01-30T06:20:01;60.70;;;23.70;;
81298;SDS011;70766;53.170;18.160;2024-01-30T06:22:29;58.80;;;23.70;;
81298;SDS011;70766;53.170;18.160;2024-01-30T06:24:57;57.60;;;22.70;;
81298;SDS011;70766;53.170;18.160;2024-01-30T06:27:26;58.30;;;23.50;;
81298;SDS011;70766;53.170;18.160;2024-01-30T06:29:54;55.50;;;22.20;;
81298;SDS011;70766;53.170;18.160;2024-01-30T06:32:22;65.30;;;25.60;;
81298;SDS011;70766;53.170;18.160;2024-01-30T06:34:52;61.00;;;24.70;;
81298;SDS011;70766;53.170;18.160;2024-01-30T06:37:20;73.80;;;29.60;;
81298;SDS011;70766;53.170;18.160;2024-01-30T06:39:53;81.90;;;29.70;;
81298;SDS011;70766;53.170;18.160;2024-01-30T06:42:21;78.70;;;28.60;;
81298;SDS011;70766;53.170;18.160;2024-01-30T06:44:49;75.80;;;29.50;;
81298;SDS011;70766;53.170;18.160;2024-01-30T06:47:17;77.60;;;28.50;;
81298;SDS011;70766;53.170;18.160;2024-01-30T06:49:46;70.60;;;28.10;;
81298;SDS011;70766;53.170;18.160;2024-01-30T06:52:14;61.00;;;25.80;;
81298;SDS011;70766;53.170;18.160;2024-01-30T06:54:42;63.70;;;25.20;;
81298;SDS011;70766;53.170;18.160;2024-01-30T06:57:11;58.80;;;23.90;;
81298;SDS011;70766;53.170;18.160;2024-01-30T06:59:40;55.90;;;22.90;;
81298;SDS011;70766;53.170;18.160;2024-01-30T07:02:11;60.90;;;23.20;;
81298;SDS011;70766;53.170;18.160;2024-01-30T07:04:40;54.00;;;21.10;;
81298;SDS011;70766;53.170;18.160;2024-01-30T07:07:14;50.50;;;22.10;;
81298;SDS011;70766;53.170;18.160;2024-01-30T07:09:44;49.10;;;20.80;;
81298;SDS011;70766;53.170;18.160;2024-01-30T07:12:12;51.80;;;22.70;;
81298;SDS011;70766;53.170;18.160;2024-01-30T07:14:41;53.60;;;21.50;;
81298;SDS011;70766;53.170;18.160;2024-01-30T07:17:10;52.10;;;22.60;;
81298;SDS011;70766;53.170;18.160;2024-01-30T07:19:38;51.60;;;20.70;;
81298;SDS011;70766;53.170;18.160;2024-01-30T07:22:07;56.80;;;23.10;;
81298;SDS011;70766;53.170;18.160;2024-01-30T07:24:36;58.30;;;22.50;;
81298;SDS011;70766;53.170;18.160;2024-01-30T07:27:04;58.20;;;21.90;;
81298;SDS011;70766;53.170;18.160;2024-01-30T07:29:32;51.30;;;21.10;;
81298;SDS011;70766;53.170;18.160;2024-01-30T07:32:00;53.50;;;20.80;;
81298;SDS011;70766;53.170;18.160;2024-01-30T07:34:28;61.60;;;24.30;;
81298;SDS011;70766;53.170;18.160;2024-01-30T07:36:58;55.90;;;23.50;;
81298;SDS011;70766;53.170;18.160;2024-01-30T07:39:26;56.30;;;24.10;;
81298;SDS011;70766;53.170;18.160;2024-01-30T07:41:56;54.50;;;22.80;;
81298;SDS011;70766;53.170;18.160;2024-01-30T07:44:24;52.50;;;21.70;;
81298;SDS011;70766;53.170;18.160;2024-01-30T07:46:52;59.10;;;24.30;;
81298;SDS011;70766;53.170;18.160;2024-01-30T07:49:21;49.70;;;21.90;;
81298;SDS011;70766;53.170;18.160;2024-01-30T07:51:49;63.00;;;24.20;;
81298;SDS011;70766;53.170;18.160;2024-01-30T07:54:17;52.40;;;22.10;;
81298;SDS011;70766;53.170;18.160;2024-01-30T07:56:45;49.20;;;22.50;;
81298;SDS011;70766;53.170;18.160;2024-01-30T07:59:14;53.90;;;22.40;;
81298;SDS011;70766;53.170;18.160;2024-01-30T08:01:42;56.60;;;22.60;;
81298;SDS011;70766;53.170;18.160;2024-01-30T08:04:11;53.80;;;20.80;;
81298;SDS011;70766;53.170;18.160;2024-01-30T08:06:39;48.70;;;20.30;;
81298;SDS011;70766;53.170;18.160;2024-01-30T08:09:10;41.20;;;19.00;;
81298;SDS011;70766;53.170;18.160;2024-01-30T08:11:38;43.00;;;18.70;;
81298;SDS011;70766;53.170;18.160;2024-01-30T08:14:07;44.60;;;19.00;;
81298;SDS011;70766;53.170;18.160;2024-01-30T08:16:39;48.10;;;20.70;;
81298;SDS011;70766;53.170;18.160;2024-01-30T08:19:07;49.50;;;20.40;;
81298;SDS011;70766;53.170;18.160;2024-01-30T08:21:35;50.80;;;20.50;;
81298;SDS011;70766;53.170;18.160;2024-01-30T08:24:06;49.20;;;20.60;;
81298;SDS011;70766;53.170;18.160;2024-01-30T08:26:35;52.30;;;20.60;;
81298;SDS011;70766;53.170;18.160;2024-01-30T08:29:03;53.70;;;21.80;;
81298;SDS011;70766;53.170;18.160;2024-01-30T08:31:32;46.20;;;20.00;;
81298;SDS011;70766;53.170;18.160;2024-01-30T08:34:00;42.80;;;18.60;;
81298;SDS011;70766;53.170;18.160;2024-01-30T08:36:29;44.80;;;19.10;;
81298;SDS011;70766;53.170;18.160;2024-01-30T08:38:57;43.10;;;19.30;;
81298;SDS011;70766;53.170;18.160;2024-01-30T08:41:30;42.70;;;18.10;;
81298;SDS011;70766;53.170;18.160;2024-01-30T08:43:59;45.40;;;18.70;;
81298;SDS011;70766;53.170;18.160;2024-01-30T08:46:27;46.80;;;19.70;;
81298;SDS011;70766;53.170;18.160;2024-01-30T08:48:55;46.70;;;19.60;;
81298;SDS011;70766;53.170;18.160;2024-01-30T08:51:24;54.70;;;23.40;;
81298;SDS011;70766;53.170;18.160;2024-01-30T08:53:52;56.50;;;22.60;;
81298;SDS011;70766;53.170;18.160;2024-01-30T08:56:21;66.80;;;26.20;;
81298;SDS011;70766;53.170;18.160;2024-01-30T08:58:49;62.60;;;23.10;;
81298;SDS011;70766;53.170;18.160;2024-01-30T09:01:18;60.50;;;23.50;;
81298;SDS011;70766;53.170;18.160;2024-01-30T09:03:46;52.80;;;22.70;;
81298;SDS011;70766;53.170;18.160;2024-01-30T09:06:15;49.60;;;20.20;;
81298;SDS011;70766;53.170;18.160;2024-01-30T09:08:43;50.80;;;20.00;;
81298;SDS011;70766;53.170;18.160;2024-01-30T09:11:14;51.90;;;19.80;;
81298;SDS011;70766;53.170;18.160;2024-01-30T09:13:43;41.80;;;17.60;;
81298;SDS011;70766;53.170;18.160;2024-01-30T09:16:11;40.80;;;17.90;;
81298;SDS011;70766;53.170;18.160;2024-01-30T09:18:39;40.60;;;18.30;;
81298;SDS011;70766;53.170;18.160;2024-01-30T09:21:08;43.60;;;18.20;;
81298;SDS011;70766;53.170;18.160;2024-01-30T09:23:37;45.30;;;19.30;;
81298;SDS011;70766;53.170;18.160;2024-01-30T09:26:05;43.10;;;17.90;;
81298;SDS011;70766;53.170;18.160;2024-01-30T09:28:34;38.20;;;16.30;;
81298;SDS011;70766;53.170;18.160;2024-01-30T09:31:02;39.50;;;17.70;;
81298;SDS011;70766;53.170;18.160;2024-01-30T09:33:31;39.50;;;16.50;;
81298;SDS011;70766;53.170;18.160;2024-01-30T09:35:59;39.90;;;16.40;;
81298;SDS011;70766;53.170;18.160;2024-01-30T09:38:27;36.20;;;15.90;;
81298;SDS011;70766;53.170;18.160;2024-01-30T09:40:56;37.70;;;16.40;;
81298;SDS011;70766;53.170;18.160;2024-01-30T09:43:27;38.70;;;16.90;;
81298;SDS011;70766;53.170;18.160;2024-01-30T09:46:02;40.10;;;17.60;;
81298;SDS011;70766;53.170;18.160;2024-01-30T09:48:31;39.50;;;17.00;;
81298;SDS011;70766;53.170;18.160;2024-01-30T09:51:01;39.20;;;16.60;;
81298;SDS011;70766;53.170;18.160;2024-01-30T09:53:30;40.40;;;17.50;;
81298;SDS011;70766;53.170;18.160;2024-01-30T09:55:59;41.30;;;16.20;;
81298;SDS011;70766;53.170;18.160;2024-01-30T09:58:29;40.60;;;17.70;;
81298;SDS011;70766;53.170;18.160;2024-01-30T10:00:57;37.50;;;16.50;;
81298;SDS011;70766;53.170;18.160;2024-01-30T10:03:26;40.00;;;15.60;;
81298;SDS011;70766;53.170;18.160;2024-01-30T10:05:55;36.70;;;16.20;;
81298;SDS011;70766;53.170;18.160;2024-01-30T10:08:23;33.20;;;14.80;;
81298;SDS011;70766;53.170;18.160;2024-01-30T10:10:53;26.20;;;13.00;;
81298;SDS011;70766;53.170;18.160;2024-01-30T10:13:22;27.90;;;13.20;;
81298;SDS011;70766;53.170;18.160;2024-01-30T10:15:50;26.80;;;12.10;;
81298;SDS011;70766;53.170;18.160;2024-01-30T10:18:22;25.90;;;12.60;;
81298;SDS011;70766;53.170;18.160;2024-01-30T10:20:50;24.60;;;13.30;;
81298;SDS011;70766;53.170;18.160;2024-01-30T10:23:19;27.10;;;12.10;;
81298;SDS011;70766;53.170;18.160;2024-01-30T10:25:47;24.90;;;12.20;;
81298;SDS011;70766;53.170;18.160;2024-01-30T10:28:15;22.90;;;11.30;;
81298;SDS011;70766;53.170;18.160;2024-01-30T10:30:44;25.00;;;12.30;;
81298;SDS011;70766;53.170;18.160;2024-01-30T10:33:12;25.80;;;12.50;;
81298;SDS011;70766;53.170;18.160;2024-01-30T10:35:44;26.30;;;12.10;;
81298;SDS011;70766;53.170;18.160;2024-01-30T10:38:13;24.70;;;11.80;;
81298;SDS011;70766;53.170;18.160;2024-01-30T10:40:43;38.30;;;18.40;;
81298;SDS011;70766;53.170;18.160;2024-01-30T10:43:13;36.90;;;17.90;;
81298;SDS011;70766;53.170;18.160;2024-01-30T10:45:44;26.10;;;14.10;;
81298;SDS011;70766;53.170;18.160;2024-01-30T10:48:16;25.30;;;12.30;;
81298;SDS011;70766;53.170;18.160;2024-01-30T10:50:50;29.00;;;12.50;;
81298;SDS011;70766;53.170;18.160;2024-01-30T10:53:27;24.80;;;12.60;;
81298;SDS011;70766;53.170;18.160;2024-01-30T10:55:58;23.00;;;12.60;;
81298;SDS011;70766;53.170;18.160;2024-01-30T10:58:28;26.10;;;12.30;;
81298;SDS011;70766;53.170;18.160;2024-01-30T11:00:56;22.80;;;12.50;;
81298;SDS011;70766;53.170;18.160;2024-01-30T11:03:27;28.70;;;12.90;;
81298;SDS011;70766;53.170;18.160;2024-01-30T11:05:58;24.80;;;12.00;;
81298;SDS011;70766;53.170;18.160;2024-01-30T11:08:28;25.00;;;12.50;;
81298;SDS011;70766;53.170;18.160;2024-01-30T11:10:59;20.90;;;11.20;;
81298;SDS011;70766;53.170;18.160;2024-01-30T11:13:28;20.70;;;11.00;;
81298;SDS011;70766;53.170;18.160;2024-01-30T11:16:01;33.90;;;16.00;;
81298;SDS011;70766;53.170;18.160;2024-01-30T11:18:31;29.70;;;16.70;;
81298;SDS011;70766;53.170;18.160;2024-01-30T11:21:00;22.50;;;12.30;;
81298;SDS011;70766;53.170;18.160;2024-01-30T11:23:33;24.50;;;11.40;;
81298;SDS011;70766;53.170;18.160;2024-01-30T11:26:01;22.50;;;10.80;;
81298;SDS011;70766;53.170;18.160;2024-01-30T11:28:32;23.00;;;10.80;;
81298;SDS011;70766;53.170;18.160;2024-01-30T11:31:04;21.00;;;10.40;;
81298;SDS011;70766;53.170;18.160;2024-01-30T11:33:33;19.50;;;10.70;;
81298;SDS011;70766;53.170;18.160;2024-01-30T11:36:02;21.30;;;11.00;;
81298;SDS011;70766;53.170;18.160;2024-01-30T11:38:30;24.60;;;11.70;;
81298;SDS011;70766;53.170;18.160;2024-01-30T11:40:59;24.90;;;11.00;;
81298;SDS011;70766;53.170;18.160;2024-01-30T11:43:28;18.80;;;11.00;;
81298;SDS011;70766;53.170;18.160;2024-01-30T11:45:56;24.70;;;11.30;;
81298;SDS011;70766;53.170;18.160;2024-01-30T11:48:25;20.30;;;10.50;;
81298;SDS011;70766;53.170;18.160;2024-01-30T11:50:54;18.60;;;9.60;;
81298;SDS011;70766;53.170;18.160;2024-01-30T11:53:22;20.50;;;10.30;;
81298;SDS011;70766;53.170;18.160;2024-01-30T11:55:50;17.60;;;9.00;;
81298;SDS011;70766;53.170;18.160;2024-01-30T11:58:19;27.40;;;11.90;;
81298;SDS011;70766;53.170;18.160;2024-01-30T12:00:54;20.20;;;9.90;;
81298;SDS011;70766;53.170;18.160;2024-01-30T12:03:24;21.70;;;10.80;;
81298;SDS011;70766;53.170;18.160;2024-01-30T12:05:56;23.90;;;11.00;;
81298;SDS011;70766;53.170;18.160;2024-01-30T12:08:27;19.60;;;9.20;;
81298;SDS011;70766;53.170;18.160;2024-01-30T12:11:00;20.40;;;9.70;;
81298;SDS011;70766;53.170;18.160;2024-01-30T12:14:00;19.00;;;9.60;;
81298;SDS011;70766;53.170;18.160;2024-01-30T12:16:30;18.50;;;9.80;;
81298;SDS011;70766;53.170;18.160;2024-01-30T12:18:59;17.90;;;9.40;;
81298;SDS011;70766;53.170;18.160;2024-01-30T12:21:37;21.90;;;10.60;;
81298;SDS011;70766;53.170;18.160;2024-01-30T12:24:09;19.80;;;10.40;;
81298;SDS011;70766;53.170;18.160;2024-01-30T12:26:43;19.30;;;10.50;;
81298;SDS011;70766;53.170;18.160;2024-01-30T12:29:11;19.50;;;9.60;;
81298;SDS011;70766;53.170;18.160;2024-01-30T12:31:42;18.80;;;9.60;;
81298;SDS011;70766;53.170;18.160;2024-01-30T12:34:14;22.30;;;10.60;;
81298;SDS011;70766;53.170;18.160;2024-01-30T12:36:47;17.60;;;9.40;;
81298;SDS011;70766;53.170;18.160;2024-01-30T12:39:17;22.10;;;10.00;;
81298;SDS011;70766;53.170;18.160;2024-01-30T12:41:46;20.70;;;9.80;;
81298;SDS011;70766;53.170;18.160;2024-01-30T12:44:17;17.40;;;9.10;;
81298;SDS011;70766;53.170;18.160;2024-01-30T12:46:52;20.40;;;10.10;;
81298;SDS011;70766;53.170;18.160;2024-01-30T12:49:22;20.60;;;10.60;;
81298;SDS011;70766;53.170;18.160;2024-01-30T12:51:51;18.70;;;9.30;;
81298;SDS011;70766;53.170;18.160;2024-01-30T12:54:21;17.10;;;9.40;;
81298;SDS011;70766;53.170;18.160;2024-01-30T12:56:50;20.10;;;9.50;;
81298;SDS011;70766;53.170;18.160;2024-01-30T13:02:07;21.80;;;10.00;;
81298;SDS011;70766;53.170;18.160;2024-01-30T13:04:43;22.70;;;10.60;;
81298;SDS011;70766;53.170;18.160;2024-01-30T13:07:17;20.90;;;10.60;;
81298;SDS011;70766;53.170;18.160;2024-01-30T13:12:54;22.50;;;9.40;;
81298;SDS011;70766;53.170;18.160;2024-01-30T13:15:25;22.60;;;10.60;;
81298;SDS011;70766;53.170;18.160;2024-01-30T13:17:55;22.50;;;10.70;;
81298;SDS011;70766;53.170;18.160;2024-01-30T13:20:23;20.90;;;10.40;;
81298;SDS011;70766;53.170;18.160;2024-01-30T13:22:52;24.70;;;10.30;;
81298;SDS011;70766;53.170;18.160;2024-01-30T13:25:20;23.20;;;10.50;;
81298;SDS011;70766;53.170;18.160;2024-01-30T13:27:49;31.40;;;11.80;;
81298;SDS011;70766;53.170;18.160;2024-01-30T13:30:19;22.60;;;9.80;;
81298;SDS011;70766;53.170;18.160;2024-01-30T13:32:51;22.10;;;10.90;;
81298;SDS011;70766;53.170;18.160;2024-01-30T13:35:19;22.80;;;9.70;;
81298;SDS011;70766;53.170;18.160;2024-01-30T13:37:52;17.30;;;9.00;;
81298;SDS011;70766;53.170;18.160;2024-01-30T13:40:29;23.90;;;9.80;;
81298;SDS011;70766;53.170;18.160;2024-01-30T13:42:59;22.40;;;10.80;;
81298;SDS011;70766;53.170;18.160;2024-01-30T13:45:28;21.50;;;10.20;;
81298;SDS011;70766;53.170;18.160;2024-01-30T13:47:59;22.70;;;11.20;;
81298;SDS011;70766;53.170;18.160;2024-01-30T13:50:29;23.10;;;10.60;;
81298;SDS011;70766;53.170;18.160;2024-01-30T13:52:58;25.60;;;10.90;;
81298;SDS011;70766;53.170;18.160;2024-01-30T13:55:28;23.60;;;10.10;;
81298;SDS011;70766;53.170;18.160;2024-01-30T13:57:57;22.70;;;10.20;;
81298;SDS011;70766;53.170;18.160;2024-01-30T14:00:25;23.70;;;10.60;;
81298;SDS011;70766;53.170;18.160;2024-01-30T14:02:54;20.50;;;10.20;;
81298;SDS011;70766;53.170;18.160;2024-01-30T14:05:28;26.30;;;10.70;;
81298;SDS011;70766;53.170;18.160;2024-01-30T14:07:57;27.40;;;10.80;;
81298;SDS011;70766;53.170;18.160;2024-01-30T14:10:27;22.30;;;10.40;;
81298;SDS011;70766;53.170;18.160;2024-01-30T14:12:56;22.20;;;11.10;;
81298;SDS011;70766;53.170;18.160;2024-01-30T14:15:24;24.10;;;10.50;;
81298;SDS011;70766;53.170;18.160;2024-01-30T14:17:56;30.40;;;11.00;;
81298;SDS011;70766;53.170;18.160;2024-01-30T14:20:30;29.50;;;13.60;;
81298;SDS011;70766;53.170;18.160;2024-01-30T14:22:59;31.20;;;12.70;;
81298;SDS011;70766;53.170;18.160;2024-01-30T14:25:27;32.00;;;13.10;;